Time;durP1;ratioP1;P1;durP2;ratioP2;P2;SDS_P1;SDS_P2;PMS_P1;PMS_P2;Temp;Humidity;BMP_temperature;BMP_pressure;BME280_temperature;BME280_humidity;BME280_pressure;Samples;Min_cycle;Max_cycle;Signal;HPM_P1;HPM_P2
2023/10/05 00:01:44;;;;;;;0.87;0.87;;;9.10;68.00;8.30;96990.00;;;;5053041;28;20216;-62
2023/10/05 00:04:15;;;;;;;0.97;0.97;;;9.10;68.70;8.30;96989.00;;;;5053617;28;20528;-62
2023/10/05 00:06:44;;;;;;;1.43;1.33;;;9.10;69.10;8.30;96987.00;;;;5053359;28;20271;-61
2023/10/05 00:09:15;;;;;;;0.70;0.70;;;9.20;68.50;8.30;96985.00;;;;5057022;28;20215;-61
2023/10/05 00:11:44;;;;;;;0.77;0.77;;;9.20;68.30;8.20;97001.00;;;;5056786;28;20231;-62
2023/10/05 00:14:12;;;;;;;0.70;0.70;;;;;8.10;96990.00;;;;5056803;28;20192;-62
2023/10/05 00:16:44;;;;;;;1.00;1.00;;;;;8.10;96989.00;;;;5056709;28;20257;-61
2023/10/05 00:19:16;;;;;;;2.53;1.37;;;8.80;67.90;8.00;96973.00;;;;5057052;28;20240;-61
2023/10/05 00:21:50;;;;;;;0.90;0.90;;;8.80;68.40;8.20;96991.00;;;;5057361;28;20673;-60
2023/10/05 00:24:20;;;;;;;1.10;1.10;;;8.90;68.80;8.30;96980.00;;;;5055633;28;20225;-61
2023/10/05 00:26:49;;;;;;;0.90;0.90;;;9.00;67.90;8.40;96976.00;;;;5056931;28;20216;-61
2023/10/05 00:29:21;;;;;;;0.80;0.80;;;9.00;68.00;8.40;96980.00;;;;5056816;28;20265;-61
2023/10/05 00:31:48;;;;;;;0.90;0.90;;;9.20;68.10;8.40;96975.00;;;;5057001;28;20208;-61
2023/10/05 00:34:22;;;;;;;0.63;0.63;;;9.20;68.30;8.40;96971.00;;;;5056534;28;20250;-61
2023/10/05 00:36:51;;;;;;;0.90;0.90;;;9.10;68.20;8.30;96966.00;;;;5056922;28;20204;-61
2023/10/05 00:39:20;;;;;;;0.60;0.60;;;9.10;68.40;8.20;96970.00;;;;5056927;28;20697;-61
2023/10/05 00:41:55;;;;;;;0.70;0.70;;;9.00;67.80;8.30;96958.00;;;;5056301;28;20204;-61
2023/10/05 00:44:23;;;;;;;0.80;0.80;;;9.00;67.20;8.20;96955.00;;;;5056368;28;20697;-61
2023/10/05 00:46:50;;;;;;;0.70;0.70;;;8.90;67.50;8.10;96965.00;;;;5056232;28;20273;-61
2023/10/05 00:49:21;;;;;;;0.60;0.60;;;8.90;67.20;8.00;96959.00;;;;5056666;28;20196;-61
2023/10/05 00:51:58;;;;;;;0.80;0.80;;;8.80;67.80;8.00;96954.00;;;;5056327;28;20258;-60
2023/10/05 00:54:32;;;;;;;0.80;0.80;;;8.80;68.20;8.10;96957.00;;;;5056664;28;20693;-61
2023/10/05 00:57:09;;;;;;;0.63;0.63;;;8.80;68.60;8.00;96941.00;;;;5056316;28;20206;-61
2023/10/05 00:59:37;;;;;;;1.23;1.23;;;8.80;68.30;8.00;96936.00;;;;5056883;28;20211;-61
2023/10/05 01:02:14;;;;;;;0.70;0.70;;;8.70;68.90;8.00;96931.00;;;;5056033;28;20212;-61
2023/10/05 01:04:56;;;;;;;0.80;0.80;;;8.70;68.90;7.80;96928.00;;;;5056272;28;20260;-62
2023/10/05 01:07:43;;;;;;;1.20;1.10;;;;;7.90;96917.00;;;;5056100;28;20200;-61
2023/10/05 01:10:40;;;;;;;0.80;0.80;;;8.60;67.30;7.80;96918.00;;;;5056335;28;20188;-61
2023/10/05 01:13:25;;;;;;;0.70;0.70;;;8.60;68.10;7.70;96922.00;;;;5055932;28;20208;-60
2023/10/05 01:15:54;;;;;;;0.90;0.90;;;8.50;68.70;7.70;96910.00;;;;5055925;28;20264;-61
2023/10/05 01:18:24;;;;;;;0.90;0.90;;;8.50;69.20;7.70;96919.00;;;;5056243;28;20225;-61
2023/10/05 01:20:53;;;;;;;1.67;1.57;;;;;7.70;96914.00;;;;5054965;28;20267;-61
2023/10/05 01:23:30;;;;;;;0.97;0.97;;;8.40;70.00;7.70;96919.00;;;;5055708;28;20199;-61
2023/10/05 01:25:58;;;;;;;0.77;0.77;;;;;7.70;96925.00;;;;5056184;28;20184;-61
2023/10/05 01:28:25;;;;;;;0.70;0.70;;;8.40;70.20;7.70;96920.00;;;;5055925;28;20626;-61
2023/10/05 01:30:55;;;;;;;1.40;1.33;;;8.60;70.70;7.80;96919.00;;;;5055442;28;20600;-61
2023/10/05 01:33:24;;;;;;;0.90;0.90;;;8.60;70.90;7.70;96923.00;;;;5055726;28;20180;-61
2023/10/05 01:35:54;;;;;;;0.83;0.83;;;8.60;69.90;7.60;96907.00;;;;5055539;28;20219;-61
2023/10/05 01:38:23;;;;;;;0.80;0.80;;;8.50;70.10;7.40;96922.00;;;;5055397;28;20192;-60
2023/10/05 01:40:54;;;;;;;1.03;1.03;;;8.30;70.40;7.40;96926.00;;;;5055410;28;20270;-61
2023/10/05 01:43:22;;;;;;;1.33;1.23;;;8.30;70.70;7.40;96914.00;;;;5055434;28;20177;-61
2023/10/05 01:45:49;;;;;;;0.63;0.63;;;8.20;70.70;7.40;96921.00;;;;5056177;28;20185;-60
2023/10/05 01:48:23;;;;;;;0.60;0.60;;;8.20;70.50;7.40;96913.00;;;;5056156;28;20270;-61
2023/10/05 01:50:50;;;;;;;0.70;0.70;;;8.30;70.60;7.40;96902.00;;;;5055069;28;20176;-61
2023/10/05 01:53:18;;;;;;;1.00;1.00;;;8.20;70.30;7.30;96903.00;;;;5055107;28;20656;-61
2023/10/05 01:55:47;;;;;;;1.10;0.97;;;8.30;70.50;7.30;96896.00;;;;5055035;28;20188;-62
2023/10/05 01:58:26;;;;;;;3.60;1.40;;;8.20;70.70;7.40;96890.00;;;;5055300;28;20204;-62
2023/10/05 02:00:54;;;;;;;0.70;0.70;;;8.20;71.90;7.40;96886.00;;;;5055283;28;20180;-61
2023/10/05 02:03:23;;;;;;;0.83;0.83;;;8.30;71.00;7.40;96897.00;;;;5054875;28;20716;-61
2023/10/05 02:05:53;;;;;;;1.57;1.13;;;8.20;71.20;7.40;96907.00;;;;5053873;28;20192;-62
2023/10/05 02:08:21;;;;;;;0.80;0.80;;;8.20;71.00;7.30;96893.00;;;;5055176;28;20318;-62
2023/10/05 02:10:50;;;;;;;0.60;0.60;;;8.10;71.00;7.30;96897.00;;;;5054780;28;20199;-61
2023/10/05 02:13:19;;;;;;;1.37;1.27;;;8.00;71.20;7.30;96902.00;;;;5054676;28;20678;-62
2023/10/05 02:15:54;;;;;;;0.80;0.80;;;8.00;71.60;7.20;96910.00;;;;5054563;28;20191;-61
2023/10/05 02:18:24;;;;;;;1.07;1.07;;;7.90;71.10;7.10;96904.00;;;;5054687;28;20227;-62
2023/10/05 02:20:56;;;;;;;0.80;0.80;;;7.90;72.20;7.00;96905.00;;;;5054507;28;20567;-61
2023/10/05 02:23:28;;;;;;;0.60;0.60;;;7.80;72.90;7.00;96892.00;;;;5054636;28;20226;-61
2023/10/05 02:25:58;;;;;;;0.80;0.80;;;7.90;73.20;7.10;96900.00;;;;5054480;28;20586;-62
2023/10/05 02:28:26;;;;;;;0.70;0.70;;;7.90;73.00;7.20;96893.00;;;;5054570;28;20227;-61
2023/10/05 02:30:59;;;;;;;1.00;1.00;;;8.00;72.50;7.10;96898.00;;;;5054374;28;20199;-61
2023/10/05 02:33:28;;;;;;;1.20;1.10;;;8.00;71.60;7.30;96897.00;;;;5054702;28;20521;-61
2023/10/05 02:35:59;;;;;;;0.80;0.80;;;8.00;71.70;7.30;96884.00;;;;5054370;28;20191;-61
2023/10/05 02:38:28;;;;;;;0.80;0.80;;;8.10;71.00;7.30;96880.00;;;;5054372;28;20186;-61
2023/10/05 02:41:03;;;;;;;1.07;1.03;;;8.10;70.80;7.30;96872.00;;;;5054186;28;20223;-61
2023/10/05 02:43:39;;;;;;;0.50;0.50;;;8.10;70.60;7.30;96881.00;;;;5054705;28;20172;-61
2023/10/05 02:46:10;;;;;;;0.70;0.70;;;8.10;70.40;7.20;96883.00;;;;5054217;28;20187;-61
2023/10/05 02:48:41;;;;;;;0.60;0.60;;;8.00;70.30;7.20;96891.00;;;;5054012;28;20203;-62
2023/10/05 02:51:10;;;;;;;0.83;0.83;;;8.00;70.40;7.10;96895.00;;;;5054209;28;20283;-62
2023/10/05 02:53:42;;;;;;;0.87;0.87;;;8.00;70.60;7.10;96883.00;;;;5054246;28;20188;-61
2023/10/05 02:56:27;;;;;;;0.70;0.70;;;8.00;70.60;7.20;96883.00;;;;5054364;28;20250;-61
2023/10/05 02:59:02;;;;;;;1.20;1.10;;;7.90;70.70;7.30;96882.00;;;;5054183;28;20689;-61
2023/10/05 03:01:32;;;;;;;0.70;0.70;;;8.00;71.60;7.20;96890.00;;;;5054036;28;20760;-61
2023/10/05 03:04:03;;;;;;;0.70;0.70;;;8.00;70.10;7.20;96879.00;;;;5053987;28;20249;-62
2023/10/05 03:06:30;;;;;;;0.63;0.63;;;8.00;71.00;7.20;96883.00;;;;5054433;28;20528;-61
2023/10/05 03:09:06;;;;;;;2.10;1.23;;;8.00;71.20;7.20;96886.00;;;;5054058;28;20194;-61
2023/10/05 03:11:37;;;;;;;0.90;0.90;;;8.00;71.30;7.30;96882.00;;;;5054259;28;20216;-62
2023/10/05 03:14:06;;;;;;;0.70;0.70;;;8.00;71.80;7.20;96872.00;;;;5054175;28;20180;-62
2023/10/05 03:16:43;;;;;;;0.70;0.70;;;8.00;71.40;7.20;96871.00;;;;5054189;28;20658;-61
2023/10/05 03:19:13;;;;;;;1.03;1.03;;;8.10;71.20;7.30;96869.00;;;;5053631;28;20231;-61
2023/10/05 03:21:40;;;;;;;0.73;0.73;;;8.10;71.20;7.20;96875.00;;;;5053602;28;20258;-61
2023/10/05 03:24:13;;;;;;;0.70;0.70;;;8.10;71.10;7.10;96876.00;;;;5053826;28;20639;-61
2023/10/05 03:26:41;;;;;;;0.77;0.77;;;8.00;71.10;7.30;96880.00;;;;5053729;28;20553;-61
2023/10/05 03:29:11;;;;;;;0.60;0.60;;;8.00;71.70;7.20;96871.00;;;;5053837;28;20218;-61
2023/10/05 03:31:43;;;;;;;0.80;0.80;;;8.00;71.60;7.20;96876.00;;;;5053616;28;20219;-61
2023/10/05 03:34:11;;;;;;;1.23;1.23;;;8.10;71.60;7.10;96878.00;;;;5053975;28;20234;-61
2023/10/05 03:36:38;;;;;;;0.60;0.60;;;8.00;71.20;7.10;96879.00;;;;5053364;28;20203;-61
2023/10/05 03:39:07;;;;;;;0.80;0.80;;;7.90;72.00;7.00;96882.00;;;;5053442;28;20204;-61
2023/10/05 03:41:38;;;;;;;1.17;1.17;;;7.90;71.60;7.10;96895.00;;;;5053143;28;20571;-61
2023/10/05 03:44:07;;;;;;;1.00;1.00;;;7.90;72.10;7.10;96894.00;;;;5053408;28;20176;-61
2023/10/05 03:46:36;;;;;;;1.20;1.20;;;8.00;72.20;7.10;96902.00;;;;5053418;28;20191;-61
2023/10/05 03:49:06;;;;;;;0.77;0.77;;;7.90;72.50;7.20;96896.00;;;;5053091;28;20644;-61
2023/10/05 03:51:37;;;;;;;1.10;1.07;;;8.00;72.80;7.30;96902.00;;;;5053443;28;20302;-61
2023/10/05 03:54:07;;;;;;;0.70;0.70;;;8.00;72.80;7.40;96898.00;;;;5053133;28;20185;-61
2023/10/05 03:56:36;;;;;;;0.70;0.70;;;8.10;72.80;7.20;96897.00;;;;5053550;28;20267;-61
2023/10/05 03:59:03;;;;;;;1.40;1.10;;;8.00;72.30;7.20;96904.00;;;;5053230;28;20670;-61
2023/10/05 04:01:31;;;;;;;0.97;0.90;;;8.00;72.10;7.20;96900.00;;;;5053083;28;20211;-61
2023/10/05 04:04:04;;;;;;;0.70;0.70;;;8.00;72.10;7.20;96894.00;;;;5053053;28;20231;-61
2023/10/05 04:06:31;;;;;;;0.70;0.70;;;8.10;72.30;7.30;96901.00;;;;5053053;28;20177;-61
2023/10/05 04:08:59;;;;;;;0.93;0.93;;;8.10;72.00;7.30;96893.00;;;;5053449;28;20219;-61
2023/10/05 04:11:27;;;;;;;0.60;0.60;;;8.10;72.00;7.30;96896.00;;;;5053376;28;20262;-61
2023/10/05 04:13:55;;;;;;;0.80;0.80;;;8.10;71.80;7.20;96900.00;;;;5053008;28;20192;-61
2023/10/05 04:16:26;;;;;;;1.00;1.00;;;8.00;71.90;7.10;96900.00;;;;5053293;28;20227;-61
2023/10/05 04:18:54;;;;;;;0.60;0.60;;;8.00;71.90;7.10;96901.00;;;;5053280;28;20185;-61
2023/10/05 04:21:23;;;;;;;0.93;0.93;;;8.00;72.10;7.20;96884.00;;;;5052967;28;20207;-61
2023/10/05 04:23:52;;;;;;;0.73;0.73;;;8.00;72.00;7.10;96892.00;;;;5052922;28;20662;-62
2023/10/05 04:26:19;;;;;;;0.77;0.77;;;8.00;71.80;7.00;96891.00;;;;5053271;28;20686;-61
2023/10/05 04:28:54;;;;;;;0.60;0.60;;;7.90;71.70;7.00;96896.00;;;;5052724;28;20242;-61
2023/10/05 04:31:25;;;;;;;0.90;0.90;;;7.90;73.30;6.90;96883.00;;;;5052658;28;20277;-61
2023/10/05 04:33:54;;;;;;;0.77;0.77;;;7.70;72.40;6.90;96867.00;;;;5052894;28;20188;-61
2023/10/05 04:36:23;;;;;;;1.67;1.57;;;7.80;73.00;7.00;96882.00;;;;5053002;28;20284;-61
2023/10/05 04:38:53;;;;;;;0.67;0.67;;;7.90;73.40;7.10;96886.00;;;;5052922;28;20204;-61
2023/10/05 04:41:28;;;;;;;0.93;0.93;;;7.90;73.50;7.20;96895.00;;;;5051510;28;20216;-61
2023/10/05 04:43:56;;;;;;;1.00;1.00;;;8.00;73.80;7.20;96890.00;;;;5052684;28;20182;-61
2023/10/05 04:46:24;;;;;;;0.83;0.83;;;8.00;73.70;7.20;96893.00;;;;5052574;28;20195;-62
2023/10/05 04:51:38;;;;;;;0.70;0.70;;;8.00;72.90;7.10;96884.00;;;;5049806;28;20599;-61
2023/10/05 04:54:10;;;;;;;0.70;0.70;;;8.00;72.70;7.20;96889.00;;;;5051814;28;20702;-61
2023/10/05 04:56:43;;;;;;;0.97;0.97;;;8.00;73.30;7.30;96885.00;;;;5056844;28;20688;-61
2023/10/05 04:59:36;;;;;;;1.10;1.10;;;8.00;73.00;7.30;96890.00;;;;5056102;28;20183;-61
2023/10/05 05:02:18;;;;;;;0.60;0.60;;;8.10;72.90;7.20;96886.00;;;;5056373;28;20243;-61
2023/10/05 05:05:07;;;;;;;1.23;1.23;;;8.10;72.70;7.20;96887.00;;;;5056305;28;20189;-61
2023/10/05 05:07:36;;;;;;;0.83;0.83;;;8.10;73.00;7.20;96888.00;;;;5056423;28;20281;-60
2023/10/05 05:10:06;;;;;;;1.53;1.43;;;8.10;72.80;7.20;96877.00;;;;5056269;28;20215;-65
2023/10/05 05:12:35;;;;;;;4.30;3.90;;;8.00;72.60;7.30;96879.00;;;;5056519;28;20273;-61
2023/10/05 05:15:03;;;;;;;1.20;1.10;;;8.00;72.90;7.30;96898.00;;;;5055727;28;20681;-61
2023/10/05 05:17:32;;;;;;;0.97;0.97;;;8.10;72.40;7.20;96882.00;;;;5055525;28;20211;-61
2023/10/05 05:19:59;;;;;;;1.03;1.03;;;8.00;72.20;7.00;96876.00;;;;5055620;28;20192;-61
2023/10/05 05:22:29;;;;;;;0.60;0.60;;;7.80;72.20;6.90;96871.00;;;;5055795;28;20211;-61
2023/10/05 05:24:58;;;;;;;0.70;0.70;;;7.80;73.00;7.00;96888.00;;;;5055742;28;20659;-61
2023/10/05 05:27:29;;;;;;;1.00;1.00;;;7.80;73.50;7.10;96880.00;;;;5055616;28;20216;-61
2023/10/05 05:29:56;;;;;;;0.70;0.70;;;8.00;73.40;7.10;96883.00;;;;5056214;28;20579;-61
2023/10/05 05:32:23;;;;;;;0.87;0.87;;;7.90;73.30;7.10;96886.00;;;;5055553;28;20211;-60
2023/10/05 05:34:50;;;;;;;0.60;0.60;;;8.00;73.20;7.10;96892.00;;;;5055624;28;20209;-61
2023/10/05 05:37:26;;;;;;;1.17;1.07;;;8.00;73.30;7.20;96865.00;;;;5055350;28;20219;-61
2023/10/05 05:39:54;;;;;;;1.63;1.53;;;8.00;73.30;7.20;96881.00;;;;5055346;28;20176;-61
2023/10/05 05:42:25;;;;;;;1.27;1.17;;;8.00;73.00;7.20;96887.00;;;;5055726;28;20204;-60
2023/10/05 05:44:53;;;;;;;0.80;0.80;;;8.00;73.40;7.20;96888.00;;;;5058517;28;20180;-60
2023/10/05 05:47:20;;;;;;;1.40;1.30;;;8.00;73.50;7.20;96885.00;;;;5057528;28;20196;-60
2023/10/05 05:49:48;;;;;;;0.87;0.87;;;8.00;73.40;7.30;96890.00;;;;5055738;28;20188;-60
2023/10/05 05:52:17;;;;;;;1.07;1.07;;;8.10;73.70;7.40;96887.00;;;;5055402;28;20208;-61
2023/10/05 05:54:46;;;;;;;0.90;0.90;;;8.10;73.70;7.40;96875.00;;;;5055329;28;20652;-62
2023/10/05 05:57:19;;;;;;;0.80;0.80;;;8.20;73.30;7.40;96866.00;;;;5054937;28;20188;-61
2023/10/05 05:59:48;;;;;;;1.00;1.00;;;8.20;73.10;7.40;96878.00;;;;5055804;28;20600;-61
2023/10/05 06:02:15;;;;;;;1.00;0.90;;;8.30;73.20;7.50;96885.00;;;;5055073;28;20204;-61
2023/10/05 06:04:42;;;;;;;0.97;0.97;;;;;7.50;96892.00;;;;5054773;28;20548;-61
2023/10/05 06:07:13;;;;;;;1.13;1.13;;;8.30;72.10;7.50;96875.00;;;;5055052;28;20520;-60
2023/10/05 06:09:42;;;;;;;0.90;0.90;;;8.30;72.80;7.50;96893.00;;;;5054873;28;20200;-60
2023/10/05 06:12:10;;;;;;;0.90;0.90;;;8.20;72.50;7.40;96893.00;;;;5054491;28;20208;-60
2023/10/05 06:14:38;;;;;;;1.90;1.40;;;8.20;72.40;7.40;96899.00;;;;5054550;28;20238;-61
2023/10/05 06:17:06;;;;;;;0.70;0.70;;;8.20;72.60;7.20;96889.00;;;;5054629;28;20571;-61
2023/10/05 06:19:33;;;;;;;1.43;1.33;;;8.10;73.10;7.30;96892.00;;;;5053169;28;20655;-60
2023/10/05 06:22:01;;;;;;;0.60;0.60;;;8.10;73.80;7.40;96897.00;;;;5054391;28;20215;-60
2023/10/05 06:24:28;;;;;;;1.70;1.20;;;8.10;73.90;7.50;96908.00;;;;5055010;28;20528;-60
2023/10/05 06:26:55;;;;;;;0.70;0.70;;;8.20;73.30;7.60;96913.00;;;;5054435;28;20674;-60
2023/10/05 06:29:22;;;;;;;0.87;0.87;;;8.30;73.10;7.60;96905.00;;;;5054180;28;20219;-61
2023/10/05 06:31:49;;;;;;;0.73;0.73;;;8.30;72.70;7.60;96918.00;;;;5052888;28;20212;-61
2023/10/05 06:34:18;;;;;;;0.70;0.70;;;8.30;72.90;7.60;96918.00;;;;5054154;28;20192;-61
2023/10/05 06:36:45;;;;;;;1.70;1.60;;;8.30;72.40;7.70;96918.00;;;;5054873;28;20184;-60
2023/10/05 06:39:14;;;;;;;2.17;1.60;;;8.40;72.70;7.70;96920.00;;;;5054265;28;20617;-61
2023/10/05 06:41:41;;;;;;;1.13;1.03;;;8.50;72.50;7.70;96930.00;;;;5054163;28;20213;-61
2023/10/05 06:44:10;;;;;;;0.83;0.83;;;8.50;72.50;7.90;96928.00;;;;5054266;28;20188;-60
2023/10/05 06:46:39;;;;;;;0.83;0.83;;;8.60;73.60;8.00;96909.00;;;;5053944;28;20196;-60
2023/10/05 06:49:07;;;;;;;5.50;1.53;;;8.70;75.50;8.00;96923.00;;;;5054277;28;20216;-61
2023/10/05 06:51:42;;;;;;;1.90;1.43;;;8.80;71.60;8.10;96928.00;;;;5054104;28;20218;-60
2023/10/05 06:54:09;;;;;;;2.20;0.90;;;8.90;72.10;8.10;96933.00;;;;5054042;28;20258;-61
2023/10/05 06:56:36;;;;;;;0.70;0.70;;;8.90;71.80;8.20;96924.00;;;;5054011;28;20196;-61
2023/10/05 06:59:04;;;;;;;2.43;1.00;;;8.90;72.10;8.30;96922.00;;;;5052414;28;20200;-60
2023/10/05 07:01:34;;;;;;;0.70;0.70;;;9.10;71.70;8.30;96929.00;;;;5053761;28;20299;-60
2023/10/05 07:04:02;;;;;;;0.80;0.80;;;9.10;71.70;8.50;96934.00;;;;5053909;28;20237;-60
2023/10/05 07:06:30;;;;;;;1.00;1.00;;;9.20;72.60;8.40;96935.00;;;;5052742;28;20613;-60
2023/10/05 07:08:59;;;;;;;2.63;2.10;;;9.10;71.50;8.40;96943.00;;;;5053830;28;20228;-60
2023/10/05 07:11:27;;;;;;;1.63;1.53;;;9.20;71.00;8.50;96924.00;;;;5053500;28;20211;-60
2023/10/05 07:13:54;;;;;;;0.80;0.80;;;9.20;71.60;8.40;96934.00;;;;5053549;28;20207;-60
2023/10/05 07:16:21;;;;;;;1.20;1.10;;;9.20;71.40;8.60;96940.00;;;;5053235;28;20210;-60
2023/10/05 07:18:48;;;;;;;0.63;0.63;;;9.30;71.60;8.80;96927.00;;;;5053071;28;20191;-60
2023/10/05 07:21:16;;;;;;;0.90;0.90;;;;;8.90;96941.00;;;;5052217;28;20289;-61
2023/10/05 07:23:43;;;;;;;0.80;0.80;;;9.60;70.00;9.00;96941.00;;;;5053384;28;20196;-60
2023/10/05 07:26:12;;;;;;;0.97;0.97;;;9.60;70.00;9.10;96930.00;;;;5053292;28;20195;-60
2023/10/05 07:28:40;;;;;;;1.23;1.23;;;9.80;69.40;9.10;96938.00;;;;5053186;28;20216;-60
2023/10/05 07:31:07;;;;;;;0.60;0.60;;;9.70;69.50;9.20;96947.00;;;;5053235;28;20235;-60
2023/10/05 07:33:35;;;;;;;0.80;0.80;;;;;9.40;96949.00;;;;5053503;28;20188;-60
2023/10/05 07:36:03;;;;;;;0.90;0.90;;;10.00;68.10;9.50;96960.00;;;;5053301;28;20188;-61
2023/10/05 07:38:31;;;;;;;0.73;0.73;;;10.10;69.10;9.60;96962.00;;;;5053177;28;20191;-61
2023/10/05 07:41:02;;;;;;;0.77;0.77;;;10.20;69.60;9.60;96971.00;;;;5052458;28;20199;-60
2023/10/05 07:43:32;;;;;;;0.70;0.70;;;10.30;69.60;9.60;96968.00;;;;5053401;28;20180;-60
2023/10/05 07:46:00;;;;;;;1.80;1.70;;;10.30;69.50;9.80;96973.00;;;;5053004;28;20294;-60
2023/10/05 07:48:28;;;;;;;1.40;1.30;;;10.40;69.50;9.90;96973.00;;;;5053004;28;20215;-60
2023/10/05 07:50:55;;;;;;;8.27;1.20;;;10.50;69.20;9.90;96972.00;;;;5053236;28;20239;-60
2023/10/05 07:53:22;;;;;;;0.80;0.80;;;10.60;69.40;9.90;96969.00;;;;5053079;28;20192;-60
2023/10/05 07:55:49;;;;;;;0.73;0.73;;;;;10.10;96964.00;;;;5054083;28;20188;-61
2023/10/05 07:58:17;;;;;;;3.03;2.73;;;10.70;69.00;10.20;96963.00;;;;5054078;28;20270;-60
2023/10/05 08:00:46;;;;;;;0.80;0.80;;;;;10.20;96958.00;;;;5052701;28;20274;-60
2023/10/05 08:03:14;;;;;;;1.30;1.30;;;10.80;68.20;10.40;96967.00;;;;5052871;28;20192;-59
2023/10/05 08:05:41;;;;;;;1.23;1.13;;;11.00;69.00;10.40;96971.00;;;;5053116;28;20283;-60
2023/10/05 08:08:10;;;;;;;0.70;0.70;;;11.10;68.10;10.60;96976.00;;;;5053025;28;20710;-60
2023/10/05 08:10:38;;;;;;;0.70;0.70;;;11.20;68.10;10.80;96980.00;;;;5052947;28;20271;-60
2023/10/05 08:13:05;;;;;;;0.60;0.60;;;11.40;68.00;10.80;96981.00;;;;5052761;28;20275;-60
2023/10/05 08:15:34;;;;;;;0.70;0.70;;;11.30;67.50;10.80;96986.00;;;;5052761;28;20195;-60
2023/10/05 08:18:03;;;;;;;0.87;0.87;;;11.40;68.00;10.90;96983.00;;;;5052546;28;20283;-60
2023/10/05 08:20:31;;;;;;;0.70;0.70;;;11.50;67.80;10.90;96990.00;;;;5053030;28;20227;-60
2023/10/05 08:22:58;;;;;;;0.50;0.50;;;11.50;66.50;11.00;96981.00;;;;5052702;28;20216;-60
2023/10/05 08:25:25;;;;;;;0.80;0.80;;;;;11.00;96997.00;;;;5052932;28;20276;-60
2023/10/05 08:27:55;;;;;;;0.77;0.77;;;11.60;66.20;11.20;97000.00;;;;5052727;28;20192;-60
2023/10/05 08:30:24;;;;;;;0.70;0.70;;;11.80;67.60;11.40;96983.00;;;;5056779;28;20215;-60
2023/10/05 08:32:55;;;;;;;0.90;0.90;;;;;11.60;96991.00;;;;5056516;28;20664;-61
2023/10/05 08:35:26;;;;;;;0.70;0.70;;;12.30;65.70;11.90;96991.00;;;;5056588;28;20184;-60
2023/10/05 08:37:53;;;;;;;0.70;0.70;;;12.60;65.10;12.20;97005.00;;;;5058039;28;20253;-60
2023/10/05 08:43:12;;;;;;;1.30;1.23;;;;;12.40;97003.00;;;;5051281;28;20232;-60
2023/10/05 08:45:50;;;;;;;0.70;0.70;;;;;12.30;96999.00;;;;5056666;28;20188;-60
2023/10/05 08:48:22;;;;;;;0.80;0.80;;;12.90;63.40;12.50;96992.00;;;;5056249;28;20172;-60
2023/10/05 08:50:57;;;;;;;0.70;0.70;;;13.00;63.70;12.50;96989.00;;;;5056809;28;20634;-61
2023/10/05 08:53:25;;;;;;;1.20;1.20;;;13.10;61.10;12.50;96984.00;;;;5056413;28;20180;-60
2023/10/05 08:55:52;;;;;;;0.73;0.67;;;13.00;62.20;12.70;96985.00;;;;5055896;28;20188;-60
2023/10/05 08:58:22;;;;;;;0.70;0.70;;;13.30;61.20;12.90;96986.00;;;;5055994;28;20184;-60
2023/10/05 09:00:49;;;;;;;1.03;1.00;;;13.50;60.50;13.10;96991.00;;;;5055756;28;20239;-61
2023/10/05 09:03:35;;;;;;;0.80;0.80;;;13.60;59.60;13.20;96979.00;;;;5055970;28;20219;-61
2023/10/05 09:06:16;;;;;;;0.70;0.70;;;13.70;60.00;13.10;96989.00;;;;5055778;28;20176;-60
2023/10/05 09:08:53;;;;;;;0.70;0.70;;;13.70;59.10;13.20;96969.00;;;;5055793;28;20287;-60
2023/10/05 09:11:31;;;;;;;0.60;0.60;;;13.60;61.00;13.30;96979.00;;;;5055838;28;20687;-61
2023/10/05 09:14:12;;;;;;;1.20;1.10;;;13.90;59.90;13.50;96983.00;;;;5056244;28;20187;-60
2023/10/05 09:16:43;;;;;;;0.80;0.80;;;14.00;59.90;13.60;96974.00;;;;5055394;28;20223;-60
2023/10/05 09:19:14;;;;;;;1.90;1.17;;;14.10;59.20;13.70;96982.00;;;;5055448;28;20183;-60
2023/10/05 09:21:50;;;;;;;0.60;0.60;;;14.30;57.90;13.90;96978.00;;;;5055494;28;20208;-59
2023/10/05 09:24:22;;;;;;;1.10;1.10;;;14.30;58.60;14.00;96976.00;;;;5054384;28;20202;-60
2023/10/05 09:26:57;;;;;;;1.23;1.23;;;14.40;57.20;14.00;96980.00;;;;5055368;28;20181;-60
2023/10/05 09:29:28;;;;;;;1.20;1.10;;;14.70;56.50;14.30;96968.00;;;;5055323;28;20208;-60
2023/10/05 09:31:56;;;;;;;1.10;1.10;;;14.60;57.10;14.60;96965.00;;;;5055699;28;20208;-61
2023/10/05 09:34:41;;;;;;;0.73;0.73;;;15.10;55.50;14.70;96983.00;;;;5053899;28;20245;-60
2023/10/05 09:37:12;;;;;;;1.37;1.27;;;15.20;56.00;14.90;97000.00;;;;5055355;28;20192;-61
2023/10/05 09:39:44;;;;;;;1.07;1.07;;;15.30;54.20;15.10;96987.00;;;;5055245;28;20180;-60
2023/10/05 09:42:16;;;;;;;1.33;1.33;;;15.50;55.10;15.10;96991.00;;;;5055198;28;20283;-60
2023/10/05 09:44:57;;;;;;;1.47;1.37;;;;;15.40;96996.00;;;;5055410;28;20188;-60
2023/10/05 09:47:32;;;;;;;1.87;1.77;;;15.80;50.20;15.50;97007.00;;;;5055013;28;20186;-61
2023/10/05 09:50:02;;;;;;;1.00;1.00;;;15.80;50.90;15.70;97011.00;;;;5054929;28;20203;-61
2023/10/05 09:52:36;;;;;;;2.20;1.60;;;16.10;49.10;15.90;97004.00;;;;5054934;28;20209;-61
2023/10/05 09:55:05;;;;;;;2.93;1.23;;;16.30;48.10;16.20;97000.00;;;;5054869;28;20203;-61
2023/10/05 09:57:40;;;;;;;1.13;1.13;;;16.50;47.30;16.10;96998.00;;;;5054741;28;20200;-61
2023/10/05 10:00:12;;;;;;;1.73;1.63;;;16.50;45.60;16.00;96991.00;;;;5055463;28;20208;-61
2023/10/05 10:02:42;;;;;;;1.00;1.00;;;;;16.20;96989.00;;;;5055255;28;20251;-61
2023/10/05 10:05:29;;;;;;;0.60;0.60;;;;;16.60;96985.00;;;;5054796;28;20196;-61
2023/10/05 10:08:08;;;;;;;0.70;0.70;;;16.90;43.60;16.60;96983.00;;;;5055173;28;20628;-61
2023/10/05 10:10:40;;;;;;;2.10;1.23;;;17.00;44.20;17.00;96983.00;;;;5054693;28;20282;-61
2023/10/05 10:13:12;;;;;;;1.80;1.70;;;;;17.20;96971.00;;;;5053157;28;20308;-61
2023/10/05 10:15:40;;;;;;;1.13;1.13;;;;;17.60;96985.00;;;;5054582;28;20188;-61
2023/10/05 10:18:14;;;;;;;0.43;0.43;;;;;17.80;96975.00;;;;5054301;28;20192;-62
2023/10/05 10:20:48;;;;;;;1.00;1.00;;;;;17.60;96977.00;;;;5055002;28;20211;-61
2023/10/05 10:23:27;;;;;;;0.67;0.67;;;;;17.80;96977.00;;;;5054870;28;20191;-61
2023/10/05 10:26:06;;;;;;;3.03;1.43;;;;;18.00;96985.00;;;;5054347;28;20234;-61
2023/10/05 10:28:49;;;;;;;1.73;1.57;;;;;18.00;97000.00;;;;5054544;28;20191;-61
2023/10/05 10:31:21;;;;;;;0.60;0.60;;;;;18.00;96996.00;;;;5054172;28;20704;-61
2023/10/05 10:33:51;;;;;;;0.97;0.97;;;;;18.00;97007.00;;;;5054387;28;20671;-62
2023/10/05 10:36:42;;;;;;;3.33;1.23;;;;;18.10;96992.00;;;;5054374;28;20664;-61
2023/10/05 10:39:23;;;;;;;1.13;1.13;;;;;18.10;96986.00;;;;5054098;28;20686;-61
2023/10/05 10:42:04;;;;;;;2.20;1.10;;;;;18.60;96979.00;;;;5053902;28;20695;-62
2023/10/05 10:44:51;;;;;;;1.90;1.70;;;;;18.80;96996.00;;;;5054556;28;20263;-61
2023/10/05 10:47:19;;;;;;;0.87;0.87;;;;;18.60;96979.00;;;;5054170;28;20188;-61
2023/10/05 10:50:04;;;;;;;0.93;0.93;;;;;18.10;96993.00;;;;5052571;28;20219;-61
2023/10/05 10:52:35;;;;;;;1.43;0.93;;;;;17.80;96993.00;;;;5053693;28;20714;-61
2023/10/05 10:55:08;;;;;;;1.43;1.33;;;;;17.80;96993.00;;;;5053947;28;20193;-62
2023/10/05 10:57:36;;;;;;;3.70;1.90;;;;;17.80;96987.00;;;;5054066;28;20181;-61
2023/10/05 11:02:47;;;;;;;1.50;1.40;;;;;17.40;97002.00;;;;5051410;28;20664;-61
2023/10/05 11:05:16;;;;;;;1.40;1.30;;;;;17.10;96980.00;;;;5053474;28;20687;-61
2023/10/05 11:07:44;;;;;;;1.17;1.00;;;;;17.10;96987.00;;;;5054121;28;20266;-61
2023/10/05 11:10:19;;;;;;;1.03;0.97;;;;;17.00;96990.00;;;;5053789;28;20541;-61
2023/10/05 11:12:53;;;;;;;1.50;1.40;;;;;16.90;97002.00;;;;5053609;28;20226;-61
2023/10/05 11:15:28;;;;;;;2.10;1.93;;;;;16.80;97007.00;;;;5053716;28;20612;-61
2023/10/05 11:17:59;;;;;;;1.07;1.07;;;;;16.70;97011.00;;;;5053681;28;20544;-61
2023/10/05 11:20:33;;;;;;;1.20;1.20;;;;;16.80;97012.00;;;;5052371;28;20188;-61
2023/10/05 11:23:03;;;;;;;2.13;1.43;;;;;16.80;97004.00;;;;5053824;28;20779;-61
2023/10/05 11:25:35;;;;;;;2.67;2.47;;;;;17.00;96984.00;;;;5053746;28;20192;-61
2023/10/05 11:28:08;;;;;;;3.27;2.00;;;;;17.20;96989.00;;;;5053996;28;20203;-61
2023/10/05 11:30:47;;;;;;;1.20;1.10;;;;;17.40;96991.00;;;;5053829;28;20542;-61
2023/10/05 11:33:16;;;;;;;1.17;1.17;;;;;17.40;96983.00;;;;5053752;28;20536;-61
2023/10/05 11:35:49;;;;;;;0.93;0.93;;;;;17.30;96977.00;;;;5053644;28;20196;-61
2023/10/05 11:38:19;;;;;;;0.93;0.93;;;;;17.60;96975.00;;;;5053796;28;20610;-61
2023/10/05 11:40:53;;;;;;;1.53;0.87;;;;;17.80;96979.00;;;;5053706;28;20196;-61
2023/10/05 11:43:21;;;;;;;2.17;1.30;;;;;18.00;97001.00;;;;5054126;28;20183;-61
2023/10/05 11:46:12;;;;;;;0.60;0.60;;;;;18.10;96990.00;;;;5054357;28;20242;-61